AirNav   Air Wisconsin pilot careers
 
 1549 users online  

CL35 Warner Springs Gliderport
Warner Springs, California, USA

GOING TO WARNER SPRINGS?


FAA INFORMATION EFFECTIVE 26 APRIL 2018

Location

FAA Identifier: CL35
Lat/Long: 33-17-04.2100N / 116-40-10.7650W
33-17.070167N / 116-40.179417W
33.2845028 / -116.6696569
(estimated)
Elevation: 2880 ft. / 878 m (estimated)
Variation: 13E (1985)
From city: 2 miles E of WARNER SPRINGS, CA
Time zone: UTC -7 (UTC -8 during Standard Time)
Zip code: 92086

Gliderport Operations

Gliderport use: Private use. Permission required prior to landing
Activation date: 10/1984
Control tower: no
ARTCC: LOS ANGELES CENTER
FSS: SAN DIEGO FLIGHT SERVICE STATION
Attendance: 0900-1700
Wind indicator: yes
Segmented circle: yes
Landing fee: yes

Gliderport Communications

UNICOM: 122.8
WX AWOS-3 at L08 (18 nm E): 126.575 (760-767-3308)
WX ASOS at RNM (19 nm SW): 132.025 (760-789-0736)

Nearby radio navigation aids

VOR radial/distance  VOR name  Freq  Var
JLIr319/9.6JULIAN VORTAC114.0015E
TRMr218/32.8THERMAL VORTAC116.2013E
PSPr186/37.1PALM SPRINGS VORTAC115.5013E
OCNr071/37.6OCEANSIDE VORTAC115.3015E
HDFr125/(39.2)HOMELAND VOR113.4014E

Gliderport Services

Runway Information

Runway 8/26

Dimensions: 3500 x 70 ft. / 1067 x 21 m
Surface: asphalt
RUNWAY 8  RUNWAY 26
Latitude: 33-17.060333N33-17.080000N
Longitude: 116-40.522667W116-39.836167W
Elevation: 2873.0 ft.2914.0 ft.
Traffic pattern: leftleft
Obstructions: none200 ft. hill, 5200 ft. from runway

Gliderport Ownership and Management from official FAA records

Ownership: Privately-owned
Owner: WARNER SPRINGS RANCH RESORT, LLC
31930 HWY 79
WARNER SPRINGS, CA 92086
Phone 760-782-4200
SKY SAILING 31930 HWY 79.
Manager: BRET WILLAT
SKY SAILING 31930 HWY 79
WARNER SPRINGS, CA 92086
Phone 760-782-0404
LEASEE.

Gliderport Operational Statistics

Aircraft based on the field: 80
Single engine airplanes: 10
Gliders airplanes: 70
    

Instrument Procedures

There are no published instrument procedures at CL35.

Some nearby airports with instrument procedures:

L08 - Borrego Valley Airport (18 nm E)
KRNM - Ramona Airport (19 nm SW)
F70 - French Valley Airport (29 nm NW)
L18 - Fallbrook Community Airpark (29 nm W)
KSEE - Gillespie Field Airport (31 nm SW)
 
Loc | Ops | Rwys | IFR | FBO | Links
Com | Nav | Svcs | Stats | Notes

AirNav Hotels Sweepstakes
 
Area around CL35 (Warner Springs Gliderport)
 
Road maps at: MapQuest Bing Google
 
Aerial photo
WARNING: Photo may not be current or correct
Aerial photo of CL35 (Warner Springs Gliderport)
Photo by Steve Lupinacci
Photo taken 27-May-2008

Do you have a better or more recent aerial photo of Warner Springs Gliderport that you would like to share? If so, please send us your photo.

 
Sectional chart

 
Airport distance calculator
Flying to Warner Springs Gliderport? Find the distance to fly.

From to CL35

Sunrise and sunset
Times for 21-May-2018
 Local
(UTC-7)
 Zulu
(UTC)
Morning civil twilight05:1612:16
Sunrise05:4412:44
Sunset19:4302:43
Evening civil twilight20:1003:10

Current date and time
Zulu (UTC)  21-May-2018 20:16:54
Local (UTC-7)  21-May-2018 13:16:54
 
METAR
KRNM 
20nm SW 
211953Z 00000KT 10SM OVC023 17/10 A2990 RMK AO2 SLP116 T01670100
KF70 
29nm NW 
211955Z AUTO 20010G15KT 10SM BKN021 OVC027 17/10 A2990 RMK AO1
KL18 
29nm W 
211955Z AUTO 20007KT 10SM OVC018 15/11 A2991 RMK AO2
KSEE 
32nm SW 
211947Z 22008KT 10SM BKN029 18/10 A2990
KCRQ 
32nm W 
212000Z 20009KT 10SM SCT023 OVC034 17/11 A2989 RMK AO2 T01720106
KTRM 
33nm NE 
211952Z AUTO 10SM CLR 32/07 A2967 RMK AO2 SLP048 T03220067
KPSP 
33nm N 
211953Z 33017G27KT 10SM CLR 28/08 A2973 RMK AO2 PK WND 33028/1934 SLP063 T02830083
KNFG 
33nm W 
211855Z 21009KT 6SM BR BKN025 OVC034 16/12 A2991 RMK AO2 SLP127 T01610117 $
KNKX 
34nm SW 
211855Z 17008KT 10SM OVC032 20/09 A2991 RMK AO2 SLP122 T02000089 $
KOKB 
34nm W 
211952Z AUTO 21010KT 10SM OVC030 18/11 A2990 RMK AO2 SLP124 T01830106
TAF
KCRQ 
32nm W 
211735Z 2118/2218 21009KT P6SM BKN025 BKN035 FM212000 24009KT P6SM BKN035 FM220200 19005KT P6SM BKN022 OVC035
KTRM 
33nm NE 
211735Z 2118/2218 33009KT P6SM SCT200 FM212300 29014G22KT P6SM SCT200 FM220200 33018G28KT P6SM SKC FM221300 33012G20KT P6SM SKC
KPSP 
33nm N 
211735Z 2118/2218 31010KT P6SM SCT200 FM212200 32020G30KT P6SM SCT200 FM220900 31012G20KT P6SM SKC
KNFG 
33nm W 
2022/2121 23008KT 9999 OVC018 QNH2986INS BECMG 2103/2105 VRB05KT 9999 OVC018 QNH2982INS AUTOMATED SENSOR METWATCH 2022 TIL 2115 T15/2109Z T20/2121Z AMD 2210
KNKX 
34nm SW 
2022/2121 23008KT 9999 OVC018 QNH2986INS BECMG 2103/2105 VRB05KT 9999 OVC018 QNH2986INS T15/2114Z T21/2121Z AMD 2210
NOTAMs
Click for the latest NOTAMs
NOTAMs are issued by the DoD/FAA and will open in a separate window not controlled by AirNav.

 

 
 

Would you like to see your business listed on this page?

 If your business provides an interesting product or service to pilots, flight crews, aircraft, or users of the Warner Springs Gliderport, you should consider listing it here.  To start the listing process, click on the button below
 
Add a business
 

Other Pages about Warner Springs Gliderport

www.agcsc.org/warner_springs_info.html
 
Update a link
 
Copyright © AirNav, LLC. All rights reserved. Privacy Policy  Contact